createdAt,value
2022-08-11T00:01:19.588Z,1.67
2022-08-11T00:04:04.513Z,1.95
2022-08-11T00:06:37.484Z,1.40
2022-08-11T00:09:10.778Z,1.98
2022-08-11T00:11:58.683Z,2.00
2022-08-11T00:14:36.801Z,1.98
2022-08-11T00:17:09.567Z,1.70
2022-08-11T00:20:13.086Z,2.03
2022-08-11T00:22:35.517Z,1.83
2022-08-11T00:25:16.031Z,1.77
2022-08-11T00:27:46.913Z,1.73
2022-08-11T00:30:17.893Z,1.98
2022-08-11T00:32:55.352Z,1.80
2022-08-11T00:35:54.808Z,1.80
2022-08-11T00:38:24.159Z,2.10
2022-08-11T00:41:02.445Z,1.88
2022-08-11T00:43:48.691Z,1.80
2022-08-11T00:46:47.434Z,1.80
2022-08-11T00:49:36.347Z,1.88
2022-08-11T00:52:35.366Z,1.90
2022-08-11T00:55:38.452Z,1.90
2022-08-11T00:58:22.515Z,1.55
2022-08-11T01:01:16.767Z,1.90
2022-08-11T01:03:53.673Z,2.17
2022-08-11T01:06:31.263Z,2.13
2022-08-11T01:09:22.313Z,1.80
2022-08-11T01:12:19.940Z,2.53
2022-08-11T01:15:05.130Z,2.10
2022-08-11T01:17:56.531Z,2.13
2022-08-11T01:21:07.067Z,1.88
2022-08-11T01:23:36.849Z,1.70
2022-08-11T01:26:38.115Z,2.40
2022-08-11T01:29:49.221Z,2.40
2022-08-11T01:32:36.160Z,2.13
2022-08-11T01:35:27.671Z,2.15
2022-08-11T01:38:34.406Z,2.30
2022-08-11T01:41:22.514Z,2.50
2022-08-11T01:44:25.565Z,2.08
2022-08-11T01:47:02.194Z,2.05
2022-08-11T01:50:09.886Z,2.08
2022-08-11T01:53:11.032Z,2.38
2022-08-11T01:56:04.474Z,1.90
2022-08-11T01:58:58.551Z,2.22
2022-08-11T02:01:49.695Z,1.90
2022-08-11T02:04:49.637Z,2.22
2022-08-11T02:07:32.655Z,2.45
2022-08-11T02:10:38.175Z,2.22
2022-08-11T02:13:36.729Z,2.38
2022-08-11T02:16:09.946Z,2.30
2022-08-11T02:19:10.260Z,2.83
2022-08-11T02:22:12.875Z,2.45
2022-08-11T02:25:35.812Z,2.30
2022-08-11T02:28:18.910Z,2.40
2022-08-11T02:32:24.540Z,2.15
2022-08-11T02:34:41.618Z,2.17
2022-08-11T02:37:28.295Z,2.50
2022-08-11T02:40:04.709Z,2.33
2022-08-11T02:42:41.555Z,2.15
2022-08-11T02:45:11.411Z,2.42
2022-08-11T02:48:26.154Z,2.67
2022-08-11T02:51:14.636Z,2.63
2022-08-11T02:54:02.382Z,2.63
2022-08-11T02:56:36.848Z,2.38
2022-08-11T02:59:35.653Z,2.58
2022-08-11T03:02:23.914Z,3.00
2022-08-11T03:05:11.185Z,2.67
2022-08-11T03:08:02.996Z,3.08
2022-08-11T03:10:32.944Z,3.03
2022-08-11T03:13:47.049Z,2.40
2022-08-11T03:16:59.679Z,2.13
2022-08-11T03:19:30.323Z,2.40
2022-08-11T03:22:18.734Z,2.47
2022-08-11T03:24:48.439Z,2.70
2022-08-11T03:27:30.031Z,2.65
2022-08-11T03:30:25.806Z,3.00
2022-08-11T03:33:38.230Z,2.67
2022-08-11T03:36:54.517Z,2.53
2022-08-11T03:39:57.211Z,2.65
2022-08-11T03:42:46.480Z,2.70
2022-08-11T03:45:37.395Z,2.80
2022-08-11T03:48:39.104Z,3.08
2022-08-11T03:51:17.887Z,2.50
2022-08-11T03:53:55.302Z,2.60
2022-08-11T03:56:41.864Z,2.75
2022-08-11T03:59:20.582Z,2.47
2022-08-11T04:02:09.406Z,2.33
2022-08-11T04:05:25.837Z,2.50
2022-08-11T04:08:03.335Z,2.38
2022-08-11T04:10:45.434Z,2.42
2022-08-11T04:13:42.251Z,2.40
2022-08-11T04:16:54.139Z,2.35
2022-08-11T04:19:36.412Z,2.58
2022-08-11T04:22:14.946Z,2.50
2022-08-11T04:24:53.184Z,2.72
2022-08-11T04:28:00.922Z,2.65
2022-08-11T04:30:46.564Z,3.00
2022-08-11T04:33:47.058Z,2.65
2022-08-11T04:37:17.575Z,2.72
2022-08-11T04:40:05.748Z,2.72
2022-08-11T04:43:19.874Z,2.33
2022-08-11T04:46:14.257Z,2.97
2022-08-11T04:49:24.268Z,2.58
2022-08-11T04:52:59.030Z,2.80
2022-08-11T04:56:13.441Z,2.85
2022-08-11T05:02:30.395Z,3.03
2022-08-11T05:05:30.389Z,3.17
2022-08-11T05:08:28.739Z,2.83
2022-08-11T05:11:32.382Z,3.30
2022-08-11T05:14:46.053Z,2.42
2022-08-11T05:17:36.024Z,2.83
2022-08-11T05:20:21.904Z,2.80
2022-08-11T05:23:09.274Z,2.90
2022-08-11T05:34:46.330Z,3.33
2022-08-11T05:37:29.671Z,2.95
2022-08-11T05:40:24.209Z,2.83
2022-08-11T05:43:14.696Z,2.72
2022-08-11T05:46:14.963Z,2.50
2022-08-11T05:49:01.537Z,2.80
2022-08-11T05:52:04.860Z,3.42
2022-08-11T05:54:51.533Z,2.60
2022-08-11T05:57:48.589Z,3.40
2022-08-11T06:00:19.438Z,3.03
2022-08-11T06:02:56.566Z,3.20
2022-08-11T06:05:44.089Z,2.47
2022-08-11T06:08:13.011Z,2.67
2022-08-11T06:10:42.406Z,3.40
2022-08-11T06:13:15.864Z,3.78
2022-08-11T06:15:55.219Z,2.72
2022-08-11T06:18:24.845Z,2.88
2022-08-11T06:20:55.875Z,2.40
2022-08-11T06:23:25.229Z,2.13
2022-08-11T06:25:58.074Z,3.30
2022-08-11T06:28:36.214Z,2.88
2022-08-11T06:31:23.603Z,2.38
2022-08-11T06:34:40.277Z,3.03
2022-08-11T06:38:04.701Z,2.78
2022-08-11T06:41:06.277Z,2.63
2022-08-11T06:43:56.017Z,2.50
2022-08-11T06:46:52.410Z,3.08
2022-08-11T06:49:49.888Z,2.83
2022-08-11T06:52:35.700Z,2.40
2022-08-11T06:55:56.952Z,2.60
2022-08-11T06:58:40.536Z,3.20
2022-08-11T07:01:14.295Z,2.72
2022-08-11T07:03:47.766Z,2.72
2022-08-11T07:06:50.560Z,2.60
2022-08-11T07:10:04.348Z,2.97
2022-08-11T07:13:08.298Z,4.70
2022-08-11T07:16:12.672Z,3.00
2022-08-11T07:18:54.065Z,3.30
2022-08-11T07:22:02.374Z,2.72
2022-08-11T07:25:15.152Z,2.40
2022-08-11T07:28:03.104Z,2.47
2022-08-11T07:30:36.786Z,2.83
2022-08-11T07:33:06.628Z,2.60
2022-08-11T07:35:47.594Z,2.47
2022-08-11T07:38:25.301Z,2.92
2022-08-11T07:40:52.410Z,2.67
2022-08-11T07:43:20.411Z,2.40
2022-08-11T07:54:16.983Z,2.45
2022-08-11T07:56:54.721Z,2.60
2022-08-11T08:00:03.612Z,2.72
2022-08-11T08:03:01.380Z,2.50
2022-08-11T08:05:48.656Z,2.60
2022-08-11T08:08:34.712Z,2.40
2022-08-11T08:11:27.474Z,2.50
2022-08-11T08:14:14.006Z,2.65
2022-08-11T08:17:02.340Z,2.22
2022-08-11T08:19:32.604Z,2.47
2022-08-11T08:22:07.125Z,2.80
2022-08-11T08:24:52.665Z,2.50
2022-08-11T08:27:25.016Z,2.47
2022-08-11T08:30:18.254Z,2.30
2022-08-11T08:32:45.075Z,2.63
2022-08-11T08:35:12.003Z,2.38
2022-08-11T08:37:45.719Z,2.22
2022-08-11T08:40:19.700Z,2.72
2022-08-11T08:42:58.999Z,3.00
2022-08-11T08:45:26.693Z,2.58
2022-08-11T08:48:10.264Z,2.80
2022-08-11T08:51:02.998Z,2.28
2022-08-11T08:53:38.728Z,2.60
2022-08-11T08:56:29.466Z,2.45
2022-08-11T08:59:00.252Z,2.80
2022-08-11T09:01:37.221Z,2.33
2022-08-11T09:04:12.356Z,2.53
2022-08-11T09:06:44.801Z,2.05
2022-08-11T09:09:17.730Z,3.00
2022-08-11T09:11:49.913Z,2.60
2022-08-11T09:14:18.231Z,2.33
2022-08-11T09:16:49.047Z,2.30
2022-08-11T09:19:17.736Z,2.40
2022-08-11T09:22:06.193Z,2.75
2022-08-11T09:24:53.824Z,2.85
2022-08-11T09:27:24.384Z,2.78
2022-08-11T09:29:52.530Z,2.75
2022-08-11T09:32:23.263Z,2.70
2022-08-11T09:34:54.535Z,2.97
2022-08-11T09:37:55.178Z,2.95
2022-08-11T09:40:29.983Z,2.50
2022-08-11T09:43:25.188Z,2.58
2022-08-11T09:45:53.327Z,2.58
2022-08-11T09:48:24.887Z,2.50
2022-08-11T09:50:55.997Z,2.33
2022-08-11T09:53:35.873Z,2.37
2022-08-11T09:56:29.940Z,2.63
2022-08-11T09:58:59.163Z,2.67
2022-08-11T10:01:34.928Z,2.78
2022-08-11T10:04:14.659Z,2.40
2022-08-11T10:07:04.529Z,2.28
2022-08-11T10:09:43.456Z,2.20
2022-08-11T10:12:21.082Z,2.15
2022-08-11T10:15:10.940Z,2.13
2022-08-11T10:18:03.581Z,2.40
2022-08-11T10:20:37.050Z,2.30
2022-08-11T10:23:28.316Z,2.53
2022-08-11T10:26:17.249Z,1.95
2022-08-11T10:29:09.985Z,1.60
2022-08-11T10:31:57.607Z,1.95
2022-08-11T10:34:31.969Z,1.88
2022-08-11T10:37:02.338Z,1.60
2022-08-11T10:39:29.374Z,2.00
2022-08-11T10:42:25.771Z,1.70
2022-08-11T10:44:58.094Z,2.13
2022-08-11T10:47:38.702Z,1.73
2022-08-11T10:50:32.789Z,1.92
2022-08-11T10:53:20.761Z,2.03
2022-08-11T10:56:07.385Z,1.80
2022-08-11T10:58:49.346Z,2.35
2022-08-11T11:03:47.267Z,1.75
2022-08-11T11:06:28.360Z,1.60
2022-08-11T11:09:41.286Z,1.85
2022-08-11T11:12:43.216Z,1.90
2022-08-11T11:15:30.921Z,1.95
2022-08-11T11:18:10.932Z,1.52
2022-08-11T11:20:47.645Z,1.73
2022-08-11T11:23:19.752Z,1.70
2022-08-11T11:29:15.596Z,1.98
2022-08-11T11:31:54.342Z,1.73
2022-08-11T11:34:53.027Z,1.92
2022-08-11T11:37:23.006Z,1.73
2022-08-11T11:39:54.541Z,1.92
2022-08-11T11:42:26.486Z,1.38
2022-08-11T11:44:56.013Z,1.67
2022-08-11T11:47:26.481Z,1.90
2022-08-11T11:49:54.678Z,1.67
2022-08-11T11:52:22.777Z,1.70
2022-08-11T11:54:54.751Z,1.50
2022-08-11T11:57:40.729Z,1.55
2022-08-11T12:00:42.973Z,1.58
2022-08-11T12:03:13.919Z,1.60
2022-08-11T12:05:48.263Z,1.60
2022-08-11T12:08:16.945Z,1.52
2022-08-11T12:11:12.903Z,1.55
2022-08-11T12:13:52.294Z,1.90
2022-08-11T12:16:33.499Z,1.80
2022-08-11T12:19:12.635Z,1.42
2022-08-11T12:22:03.371Z,1.65
2022-08-11T12:24:50.587Z,1.65
2022-08-11T12:27:25.575Z,1.83
2022-08-11T12:30:00.616Z,1.80
2022-08-11T12:32:32.369Z,2.00
2022-08-11T12:35:06.639Z,2.35
2022-08-11T12:37:47.843Z,2.13
2022-08-11T12:41:13.830Z,3.17
2022-08-11T12:43:57.137Z,1.88
2022-08-11T12:46:38.240Z,1.55
2022-08-11T12:49:36.302Z,1.63
2022-08-11T12:52:13.261Z,2.15
2022-08-11T12:54:59.726Z,2.08
2022-08-11T12:57:48.118Z,2.00
2022-08-11T13:00:35.322Z,1.52
2022-08-11T13:03:23.964Z,1.73
2022-08-11T13:05:54.421Z,2.00
2022-08-11T13:08:24.777Z,1.77
2022-08-11T13:11:11.738Z,1.65
2022-08-11T13:13:52.763Z,1.73
2022-08-11T13:16:58.930Z,1.80
2022-08-11T13:19:30.001Z,1.60
2022-08-11T13:22:01.642Z,1.67
2022-08-11T13:24:35.281Z,1.75
2022-08-11T13:29:35.737Z,1.90
2022-08-11T13:32:10.668Z,1.67
2022-08-11T13:34:43.537Z,1.67
2022-08-11T13:37:13.753Z,1.42
2022-08-11T13:39:49.759Z,1.60
2022-08-11T13:46:42.923Z,1.63
2022-08-11T13:49:20.924Z,1.80
2022-08-11T13:51:51.795Z,1.85
2022-08-11T13:54:22.658Z,1.17
2022-08-11T13:56:53.391Z,1.42
2022-08-11T13:59:29.548Z,1.93
2022-08-11T14:02:28.189Z,1.80
2022-08-11T14:05:10.755Z,1.50
2022-08-11T14:07:44.501Z,1.70
2022-08-11T14:10:16.431Z,2.03
2022-08-11T14:13:11.810Z,1.80
2022-08-11T14:15:42.242Z,2.03
2022-08-11T14:18:20.512Z,2.10
2022-08-11T14:21:15.077Z,1.60
2022-08-11T14:23:47.489Z,1.33
2022-08-11T14:26:23.164Z,1.70
2022-08-11T14:28:59.899Z,1.67
2022-08-11T14:31:32.009Z,1.90
2022-08-11T14:34:02.629Z,1.60
2022-08-11T14:36:41.370Z,1.75
2022-08-11T14:39:12.441Z,1.70
2022-08-11T14:42:10.425Z,2.25
2022-08-11T14:45:24.629Z,1.95
2022-08-11T14:48:14.184Z,1.92
2022-08-11T14:50:41.094Z,1.45
2022-08-11T14:53:10.433Z,1.35
2022-08-11T14:56:03.097Z,1.45
2022-08-11T14:58:35.632Z,1.20
2022-08-11T15:01:28.646Z,2.00
2022-08-11T15:04:25.094Z,2.00
2022-08-11T15:06:46.434Z,1.25
2022-08-11T15:09:21.983Z,1.63
2022-08-11T15:12:08.080Z,2.30
2022-08-11T15:15:15.974Z,2.03
2022-08-11T15:17:43.955Z,1.70
2022-08-11T15:20:33.300Z,1.45
2022-08-11T15:23:20.027Z,1.88
2022-08-11T15:25:52.585Z,1.50
2022-08-11T15:28:39.743Z,1.75
2022-08-11T15:31:29.855Z,1.60
2022-08-11T15:34:28.830Z,1.65
2022-08-11T15:40:46.602Z,2.47
2022-08-11T15:44:07.387Z,1.85
2022-08-11T15:46:55.328Z,1.45
2022-08-11T15:55:57.236Z,1.70
2022-08-11T15:59:10.755Z,1.73
2022-08-11T16:02:01.541Z,1.50
2022-08-11T16:04:30.455Z,1.40
2022-08-11T16:07:12.783Z,1.35
2022-08-11T16:10:00.479Z,1.50
2022-08-11T16:12:38.599Z,1.48
2022-08-11T16:15:29.149Z,1.63
2022-08-11T16:18:04.609Z,2.28
2022-08-11T16:20:34.154Z,1.90
2022-08-11T16:23:06.306Z,1.65
2022-08-11T16:27:01.849Z,1.55
2022-08-11T16:28:23.774Z,1.52
2022-08-11T16:30:53.222Z,2.90
2022-08-11T16:33:49.440Z,1.40
2022-08-11T16:36:31.282Z,1.92
2022-08-11T16:38:59.662Z,1.75
2022-08-11T16:41:49.294Z,1.52
2022-08-11T16:44:43.416Z,1.40
2022-08-11T16:47:13.344Z,1.45
2022-08-11T16:49:52.537Z,1.50
2022-08-11T16:52:23.123Z,1.92
2022-08-11T16:54:52.988Z,1.95
2022-08-11T16:57:43.402Z,1.75
2022-08-11T17:00:14.197Z,1.85
2022-08-11T17:03:09.135Z,2.25
2022-08-11T17:06:00.032Z,2.90
2022-08-11T17:09:13.951Z,2.30
2022-08-11T17:12:10.289Z,1.67
2022-08-11T17:14:53.518Z,2.10
2022-08-11T17:17:49.310Z,1.70
2022-08-11T17:20:41.298Z,1.67
2022-08-11T17:27:40.600Z,2.22
2022-08-11T17:30:10.132Z,1.80
2022-08-11T17:33:02.206Z,2.17
2022-08-11T17:35:40.279Z,1.50
2022-08-11T17:38:08.565Z,2.55
2022-08-11T17:41:01.081Z,1.83
2022-08-11T17:43:47.953Z,1.83
2022-08-11T17:46:37.347Z,1.70
2022-08-11T17:49:08.629Z,1.75
2022-08-11T17:51:55.735Z,1.60
2022-08-11T17:54:44.978Z,2.00
2022-08-11T17:57:31.868Z,2.15
2022-08-11T18:00:00.022Z,1.55
2022-08-11T18:03:03.938Z,1.85
2022-08-11T18:05:33.830Z,1.75
2022-08-11T18:08:24.472Z,1.50
2022-08-11T18:11:10.973Z,1.52
2022-08-11T18:14:02.305Z,1.63
2022-08-11T18:16:47.921Z,1.77
2022-08-11T18:19:33.571Z,1.90
2022-08-11T18:22:26.542Z,1.63
2022-08-11T18:25:16.617Z,1.48
2022-08-11T18:28:04.465Z,1.48
2022-08-11T18:31:03.755Z,1.95
2022-08-11T18:34:08.978Z,1.75
2022-08-11T18:37:32.854Z,1.80
2022-08-11T18:40:27.663Z,1.52
2022-08-11T18:43:18.501Z,1.70
2022-08-11T18:46:08.235Z,1.75
2022-08-11T18:48:57.326Z,1.52
2022-08-11T18:51:44.345Z,1.52
2022-08-11T18:54:31.617Z,1.80
2022-08-11T19:00:26.277Z,1.80
2022-08-11T19:03:14.485Z,2.05
2022-08-11T19:06:06.188Z,2.00
2022-08-11T19:09:15.485Z,2.15
2022-08-11T19:12:02.916Z,1.95
2022-08-11T19:14:53.324Z,1.50
2022-08-11T19:17:43.564Z,1.58
2022-08-11T19:20:37.965Z,2.00
2022-08-11T19:23:27.738Z,1.80
2022-08-11T19:26:14.899Z,2.20
2022-08-11T19:29:06.968Z,2.15
2022-08-11T19:31:54.972Z,2.08
2022-08-11T19:34:43.136Z,1.88
2022-08-11T19:37:31.420Z,1.83
2022-08-11T19:40:42.461Z,1.88
2022-08-11T19:43:31.161Z,1.70
2022-08-11T19:46:20.188Z,2.10
2022-08-11T19:49:10.732Z,1.85
2022-08-11T19:51:58.038Z,2.15
2022-08-11T19:54:52.351Z,1.67
2022-08-11T19:57:41.359Z,2.20
2022-08-11T20:00:34.358Z,2.17
2022-08-11T20:03:22.841Z,1.90
2022-08-11T20:06:11.689Z,2.10
2022-08-11T20:09:01.453Z,2.22
2022-08-11T20:11:51.532Z,2.15
2022-08-11T20:14:38.936Z,2.08
2022-08-11T20:17:30.153Z,2.15
2022-08-11T20:20:17.838Z,1.90
2022-08-11T20:23:08.511Z,1.75
2022-08-11T20:26:14.086Z,2.05
2022-08-11T20:29:06.816Z,2.00
2022-08-11T20:31:56.495Z,1.92
2022-08-11T20:34:43.013Z,1.98
2022-08-11T20:37:29.856Z,1.73
2022-08-11T20:40:23.709Z,2.30
2022-08-11T20:44:07.916Z,2.10
2022-08-11T20:46:18.540Z,2.38
2022-08-11T20:49:05.667Z,2.17
2022-08-11T20:51:52.878Z,2.35
2022-08-11T20:57:59.425Z,2.08
2022-08-11T21:00:53.546Z,2.28
2022-08-11T21:03:45.260Z,1.98
2022-08-11T21:06:43.020Z,1.90
2022-08-11T21:09:58.756Z,2.20
2022-08-11T21:12:41.217Z,2.30
2022-08-11T21:15:47.296Z,2.13
2022-08-11T21:21:46.684Z,1.98
2022-08-11T21:24:38.613Z,2.40
2022-08-11T21:27:35.787Z,2.33
2022-08-11T21:33:08.054Z,2.60
2022-08-11T21:35:55.942Z,2.25
2022-08-11T21:38:48.860Z,2.58
2022-08-11T21:41:37.766Z,2.17
2022-08-11T21:44:29.596Z,2.50
2022-08-11T21:47:43.205Z,2.50
2022-08-11T21:50:54.487Z,2.33
2022-08-11T21:53:40.867Z,2.50
2022-08-11T21:56:31.227Z,2.17
2022-08-11T21:59:18.608Z,2.33
2022-08-11T22:02:12.030Z,2.42
2022-08-11T22:05:04.412Z,2.67
2022-08-11T22:07:51.956Z,2.15
2022-08-11T22:10:42.560Z,2.90
2022-08-11T22:13:32.542Z,2.40
2022-08-11T22:16:19.998Z,1.98
2022-08-11T22:19:13.351Z,2.35
2022-08-11T22:22:04.263Z,2.20
2022-08-11T22:24:52.737Z,2.30
2022-08-11T22:27:39.037Z,2.10
2022-08-11T22:30:30.291Z,2.25
2022-08-11T22:33:21.182Z,2.30
2022-08-11T22:42:17.829Z,2.70
2022-08-11T22:45:13.030Z,2.42
2022-08-11T22:48:02.868Z,2.30
2022-08-11T22:50:53.455Z,2.05
2022-08-11T22:53:54.957Z,2.45
2022-08-11T22:56:56.535Z,2.30
2022-08-11T23:02:47.996Z,2.20
2022-08-11T23:05:35.863Z,2.20
2022-08-11T23:12:07.933Z,2.20
2022-08-11T23:14:59.420Z,2.17
2022-08-11T23:20:54.712Z,2.25
2022-08-11T23:23:48.936Z,2.30
2022-08-11T23:26:40.877Z,2.80
2022-08-11T23:29:30.058Z,2.03
2022-08-11T23:32:27.040Z,2.35
2022-08-11T23:35:38.788Z,2.60
2022-08-11T23:38:24.368Z,2.40
2022-08-11T23:41:11.071Z,2.67
2022-08-11T23:43:58.372Z,2.80
2022-08-11T23:46:48.771Z,3.03
2022-08-11T23:49:37.533Z,2.10
2022-08-11T23:52:26.730Z,2.45
2022-08-11T23:55:26.385Z,2.22
2022-08-11T23:58:13.046Z,2.13
